sensor_id;sensor_type;location;lat;lon;timestamp;P1;durP1;ratioP1;P2;durP2;ratioP2
18146;SDS011;9199;48.832;9.182;2024-03-29T00:00:50;3.58;;;1.45;;
18146;SDS011;9199;48.832;9.182;2024-03-29T00:03:17;3.33;;;1.10;;
18146;SDS011;9199;48.832;9.182;2024-03-29T00:05:43;4.07;;;0.97;;
18146;SDS011;9199;48.832;9.182;2024-03-29T00:08:08;3.40;;;1.02;;
18146;SDS011;9199;48.832;9.182;2024-03-29T00:10:34;4.30;;;1.05;;
18146;SDS011;9199;48.832;9.182;2024-03-29T00:13:00;3.13;;;1.03;;
18146;SDS011;9199;48.832;9.182;2024-03-29T00:15:26;3.55;;;1.02;;
18146;SDS011;9199;48.832;9.182;2024-03-29T00:17:52;4.60;;;1.20;;
18146;SDS011;9199;48.832;9.182;2024-03-29T00:20:19;3.00;;;1.10;;
18146;SDS011;9199;48.832;9.182;2024-03-29T00:22:45;3.08;;;1.00;;
18146;SDS011;9199;48.832;9.182;2024-03-29T00:25:10;3.30;;;0.90;;
18146;SDS011;9199;48.832;9.182;2024-03-29T00:27:36;2.75;;;0.85;;
18146;SDS011;9199;48.832;9.182;2024-03-29T00:30:02;3.30;;;1.00;;
18146;SDS011;9199;48.832;9.182;2024-03-29T00:32:29;2.87;;;0.80;;
18146;SDS011;9199;48.832;9.182;2024-03-29T00:34:54;7.22;;;1.20;;
18146;SDS011;9199;48.832;9.182;2024-03-29T00:37:22;9.35;;;1.75;;
18146;SDS011;9199;48.832;9.182;2024-03-29T00:39:48;5.15;;;1.17;;
18146;SDS011;9199;48.832;9.182;2024-03-29T00:42:14;3.20;;;0.80;;
18146;SDS011;9199;48.832;9.182;2024-03-29T00:44:40;5.30;;;1.20;;
18146;SDS011;9199;48.832;9.182;2024-03-29T00:47:06;5.85;;;1.17;;
18146;SDS011;9199;48.832;9.182;2024-03-29T00:49:32;2.88;;;0.90;;
18146;SDS011;9199;48.832;9.182;2024-03-29T00:51:58;2.97;;;0.80;;
18146;SDS011;9199;48.832;9.182;2024-03-29T00:54:25;3.53;;;1.15;;
18146;SDS011;9199;48.832;9.182;2024-03-29T00:56:51;1.83;;;0.63;;
18146;SDS011;9199;48.832;9.182;2024-03-29T00:59:17;2.07;;;0.70;;
18146;SDS011;9199;48.832;9.182;2024-03-29T01:01:44;2.72;;;0.80;;
18146;SDS011;9199;48.832;9.182;2024-03-29T01:04:10;3.05;;;1.00;;
18146;SDS011;9199;48.832;9.182;2024-03-29T01:06:35;2.20;;;0.70;;
18146;SDS011;9199;48.832;9.182;2024-03-29T01:09:02;4.50;;;1.08;;
18146;SDS011;9199;48.832;9.182;2024-03-29T01:11:29;2.67;;;0.87;;
18146;SDS011;9199;48.832;9.182;2024-03-29T01:13:55;2.83;;;0.80;;
18146;SDS011;9199;48.832;9.182;2024-03-29T01:16:21;2.83;;;0.75;;
18146;SDS011;9199;48.832;9.182;2024-03-29T01:18:47;4.40;;;0.90;;
18146;SDS011;9199;48.832;9.182;2024-03-29T01:21:13;2.90;;;0.73;;
18146;SDS011;9199;48.832;9.182;2024-03-29T01:23:39;4.35;;;0.80;;
18146;SDS011;9199;48.832;9.182;2024-03-29T01:26:05;2.35;;;0.70;;
18146;SDS011;9199;48.832;9.182;2024-03-29T01:28:33;3.10;;;0.90;;
18146;SDS011;9199;48.832;9.182;2024-03-29T01:30:59;2.70;;;0.77;;
18146;SDS011;9199;48.832;9.182;2024-03-29T01:33:25;4.38;;;0.60;;
18146;SDS011;9199;48.832;9.182;2024-03-29T01:35:51;2.05;;;0.63;;
18146;SDS011;9199;48.832;9.182;2024-03-29T01:38:18;2.70;;;0.80;;
18146;SDS011;9199;48.832;9.182;2024-03-29T01:40:43;3.00;;;0.67;;
18146;SDS011;9199;48.832;9.182;2024-03-29T01:43:09;2.65;;;0.70;;
18146;SDS011;9199;48.832;9.182;2024-03-29T01:45:38;3.35;;;0.80;;
18146;SDS011;9199;48.832;9.182;2024-03-29T01:48:05;2.37;;;0.70;;
18146;SDS011;9199;48.832;9.182;2024-03-29T01:50:32;2.40;;;0.60;;
18146;SDS011;9199;48.832;9.182;2024-03-29T01:53:00;3.45;;;0.80;;
18146;SDS011;9199;48.832;9.182;2024-03-29T01:55:27;3.22;;;0.90;;
18146;SDS011;9199;48.832;9.182;2024-03-29T01:57:54;2.75;;;0.73;;
18146;SDS011;9199;48.832;9.182;2024-03-29T02:00:22;2.47;;;0.70;;
18146;SDS011;9199;48.832;9.182;2024-03-29T02:02:51;2.60;;;0.80;;
18146;SDS011;9199;48.832;9.182;2024-03-29T02:05:18;2.88;;;0.77;;
18146;SDS011;9199;48.832;9.182;2024-03-29T02:07:44;2.78;;;0.60;;
18146;SDS011;9199;48.832;9.182;2024-03-29T02:10:13;2.83;;;0.80;;
18146;SDS011;9199;48.832;9.182;2024-03-29T02:12:40;2.20;;;0.60;;
18146;SDS011;9199;48.832;9.182;2024-03-29T02:15:06;3.65;;;0.80;;
18146;SDS011;9199;48.832;9.182;2024-03-29T02:17:33;2.45;;;0.75;;
18146;SDS011;9199;48.832;9.182;2024-03-29T02:20:01;2.38;;;0.70;;
18146;SDS011;9199;48.832;9.182;2024-03-29T02:22:28;2.13;;;0.70;;
18146;SDS011;9199;48.832;9.182;2024-03-29T02:24:58;2.45;;;0.75;;
18146;SDS011;9199;48.832;9.182;2024-03-29T02:27:25;2.47;;;0.70;;
18146;SDS011;9199;48.832;9.182;2024-03-29T02:30:04;3.25;;;0.73;;
18146;SDS011;9199;48.832;9.182;2024-03-29T02:32:32;2.03;;;0.50;;
18146;SDS011;9199;48.832;9.182;2024-03-29T02:34:58;2.40;;;0.50;;
18146;SDS011;9199;48.832;9.182;2024-03-29T02:37:25;1.92;;;0.60;;
18146;SDS011;9199;48.832;9.182;2024-03-29T02:39:52;1.80;;;0.60;;
18146;SDS011;9199;48.832;9.182;2024-03-29T02:42:20;2.40;;;0.55;;
18146;SDS011;9199;48.832;9.182;2024-03-29T02:44:47;2.53;;;0.70;;
18146;SDS011;9199;48.832;9.182;2024-03-29T02:47:14;1.20;;;0.50;;
18146;SDS011;9199;48.832;9.182;2024-03-29T02:49:40;2.30;;;0.60;;
18146;SDS011;9199;48.832;9.182;2024-03-29T02:52:06;2.28;;;0.55;;
18146;SDS011;9199;48.832;9.182;2024-03-29T02:54:33;2.15;;;0.70;;
18146;SDS011;9199;48.832;9.182;2024-03-29T02:56:59;2.03;;;0.60;;
18146;SDS011;9199;48.832;9.182;2024-03-29T02:59:27;2.25;;;0.60;;
18146;SDS011;9199;48.832;9.182;2024-03-29T03:01:53;2.20;;;0.50;;
18146;SDS011;9199;48.832;9.182;2024-03-29T03:04:20;1.80;;;0.53;;
18146;SDS011;9199;48.832;9.182;2024-03-29T03:06:45;2.30;;;0.70;;
18146;SDS011;9199;48.832;9.182;2024-03-29T03:09:12;2.22;;;0.60;;
18146;SDS011;9199;48.832;9.182;2024-03-29T03:11:57;2.28;;;0.50;;
18146;SDS011;9199;48.832;9.182;2024-03-29T03:14:24;1.90;;;0.53;;
18146;SDS011;9199;48.832;9.182;2024-03-29T03:16:52;2.10;;;0.70;;
18146;SDS011;9199;48.832;9.182;2024-03-29T03:19:19;2.08;;;0.55;;
18146;SDS011;9199;48.832;9.182;2024-03-29T03:21:44;1.97;;;0.50;;
18146;SDS011;9199;48.832;9.182;2024-03-29T03:24:12;2.10;;;0.90;;
18146;SDS011;9199;48.832;9.182;2024-03-29T03:26:38;1.95;;;0.63;;
18146;SDS011;9199;48.832;9.182;2024-03-29T03:29:05;1.52;;;0.50;;
18146;SDS011;9199;48.832;9.182;2024-03-29T03:31:33;2.20;;;0.60;;
18146;SDS011;9199;48.832;9.182;2024-03-29T03:34:01;1.70;;;0.60;;
18146;SDS011;9199;48.832;9.182;2024-03-29T03:36:26;2.33;;;0.60;;
18146;SDS011;9199;48.832;9.182;2024-03-29T03:38:53;2.22;;;0.70;;
18146;SDS011;9199;48.832;9.182;2024-03-29T03:41:19;2.67;;;0.67;;
18146;SDS011;9199;48.832;9.182;2024-03-29T03:43:46;2.43;;;0.70;;
18146;SDS011;9199;48.832;9.182;2024-03-29T03:46:12;2.20;;;0.80;;
18146;SDS011;9199;48.832;9.182;2024-03-29T03:48:38;1.80;;;0.60;;
18146;SDS011;9199;48.832;9.182;2024-03-29T03:51:05;2.70;;;0.70;;
18146;SDS011;9199;48.832;9.182;2024-03-29T03:53:32;3.38;;;0.70;;
18146;SDS011;9199;48.832;9.182;2024-03-29T03:55:58;2.28;;;0.70;;
18146;SDS011;9199;48.832;9.182;2024-03-29T03:58:25;2.10;;;0.80;;
18146;SDS011;9199;48.832;9.182;2024-03-29T04:00:50;2.47;;;0.60;;
18146;SDS011;9199;48.832;9.182;2024-03-29T04:03:17;2.75;;;0.70;;
18146;SDS011;9199;48.832;9.182;2024-03-29T04:05:43;2.57;;;0.80;;
18146;SDS011;9199;48.832;9.182;2024-03-29T04:08:11;3.33;;;0.70;;
18146;SDS011;9199;48.832;9.182;2024-03-29T04:10:38;2.03;;;0.60;;
18146;SDS011;9199;48.832;9.182;2024-03-29T04:13:06;2.33;;;0.60;;
18146;SDS011;9199;48.832;9.182;2024-03-29T04:15:32;2.00;;;0.70;;
18146;SDS011;9199;48.832;9.182;2024-03-29T04:17:59;2.45;;;0.70;;
18146;SDS011;9199;48.832;9.182;2024-03-29T04:20:24;1.73;;;0.55;;
18146;SDS011;9199;48.832;9.182;2024-03-29T04:22:51;1.98;;;0.57;;
18146;SDS011;9199;48.832;9.182;2024-03-29T04:25:18;2.07;;;0.57;;
18146;SDS011;9199;48.832;9.182;2024-03-29T04:27:45;2.63;;;0.60;;
18146;SDS011;9199;48.832;9.182;2024-03-29T04:30:11;3.47;;;0.95;;
18146;SDS011;9199;48.832;9.182;2024-03-29T04:32:38;2.20;;;0.60;;
18146;SDS011;9199;48.832;9.182;2024-03-29T04:35:04;3.33;;;0.70;;
18146;SDS011;9199;48.832;9.182;2024-03-29T04:37:31;3.72;;;0.88;;
18146;SDS011;9199;48.832;9.182;2024-03-29T04:39:58;3.38;;;0.70;;
18146;SDS011;9199;48.832;9.182;2024-03-29T04:42:26;2.00;;;0.73;;
18146;SDS011;9199;48.832;9.182;2024-03-29T04:44:53;2.38;;;0.63;;
18146;SDS011;9199;48.832;9.182;2024-03-29T04:47:20;3.40;;;0.90;;
18146;SDS011;9199;48.832;9.182;2024-03-29T04:49:46;3.50;;;0.80;;
18146;SDS011;9199;48.832;9.182;2024-03-29T04:52:13;2.88;;;0.90;;
18146;SDS011;9199;48.832;9.182;2024-03-29T04:54:40;2.33;;;0.70;;
18146;SDS011;9199;48.832;9.182;2024-03-29T04:57:06;4.53;;;1.00;;
18146;SDS011;9199;48.832;9.182;2024-03-29T04:59:35;2.25;;;0.73;;
18146;SDS011;9199;48.832;9.182;2024-03-29T05:02:02;2.55;;;0.70;;
18146;SDS011;9199;48.832;9.182;2024-03-29T05:04:29;3.42;;;0.77;;
18146;SDS011;9199;48.832;9.182;2024-03-29T05:06:56;2.17;;;0.60;;
18146;SDS011;9199;48.832;9.182;2024-03-29T05:09:24;2.80;;;0.70;;
18146;SDS011;9199;48.832;9.182;2024-03-29T05:11:51;2.25;;;0.70;;
18146;SDS011;9199;48.832;9.182;2024-03-29T05:14:19;3.38;;;0.80;;
18146;SDS011;9199;48.832;9.182;2024-03-29T05:16:48;2.65;;;0.68;;
18146;SDS011;9199;48.832;9.182;2024-03-29T05:19:16;3.03;;;0.70;;
18146;SDS011;9199;48.832;9.182;2024-03-29T05:21:42;2.95;;;0.90;;
18146;SDS011;9199;48.832;9.182;2024-03-29T05:24:09;2.70;;;0.63;;
18146;SDS011;9199;48.832;9.182;2024-03-29T05:26:36;2.30;;;0.70;;
18146;SDS011;9199;48.832;9.182;2024-03-29T05:29:03;2.88;;;0.73;;
18146;SDS011;9199;48.832;9.182;2024-03-29T05:31:30;2.70;;;0.80;;
18146;SDS011;9199;48.832;9.182;2024-03-29T05:33:58;3.83;;;0.80;;
18146;SDS011;9199;48.832;9.182;2024-03-29T05:36:26;2.30;;;0.80;;
18146;SDS011;9199;48.832;9.182;2024-03-29T05:38:53;3.38;;;0.90;;
18146;SDS011;9199;48.832;9.182;2024-03-29T05:41:20;2.17;;;0.60;;
18146;SDS011;9199;48.832;9.182;2024-03-29T05:43:46;1.77;;;0.60;;
18146;SDS011;9199;48.832;9.182;2024-03-29T05:46:14;2.13;;;0.65;;
18146;SDS011;9199;48.832;9.182;2024-03-29T05:48:42;2.50;;;0.70;;
18146;SDS011;9199;48.832;9.182;2024-03-29T05:51:10;2.85;;;0.70;;
18146;SDS011;9199;48.832;9.182;2024-03-29T05:53:37;3.20;;;0.90;;
18146;SDS011;9199;48.832;9.182;2024-03-29T05:56:04;3.80;;;0.80;;
18146;SDS011;9199;48.832;9.182;2024-03-29T05:58:31;2.22;;;0.75;;
18146;SDS011;9199;48.832;9.182;2024-03-29T06:00:59;2.13;;;0.60;;
18146;SDS011;9199;48.832;9.182;2024-03-29T06:03:26;2.25;;;0.63;;
18146;SDS011;9199;48.832;9.182;2024-03-29T06:05:53;2.45;;;0.70;;
18146;SDS011;9199;48.832;9.182;2024-03-29T06:08:21;1.97;;;0.60;;
18146;SDS011;9199;48.832;9.182;2024-03-29T06:10:50;3.15;;;0.70;;
18146;SDS011;9199;48.832;9.182;2024-03-29T06:13:18;1.65;;;0.60;;
18146;SDS011;9199;48.832;9.182;2024-03-29T06:16:13;2.63;;;0.65;;
18146;SDS011;9199;48.832;9.182;2024-03-29T06:18:58;2.60;;;0.60;;
18146;SDS011;9199;48.832;9.182;2024-03-29T06:21:25;2.60;;;0.77;;
18146;SDS011;9199;48.832;9.182;2024-03-29T06:23:53;1.92;;;0.57;;
18146;SDS011;9199;48.832;9.182;2024-03-29T06:26:20;3.20;;;0.82;;
18146;SDS011;9199;48.832;9.182;2024-03-29T06:28:46;3.47;;;0.88;;
18146;SDS011;9199;48.832;9.182;2024-03-29T06:31:13;3.30;;;0.90;;
18146;SDS011;9199;48.832;9.182;2024-03-29T06:33:40;3.80;;;1.40;;
18146;SDS011;9199;48.832;9.182;2024-03-29T06:36:07;4.68;;;2.30;;
18146;SDS011;9199;48.832;9.182;2024-03-29T06:38:33;4.32;;;1.60;;
18146;SDS011;9199;48.832;9.182;2024-03-29T06:41:01;5.28;;;1.45;;
18146;SDS011;9199;48.832;9.182;2024-03-29T06:43:28;4.85;;;1.52;;
18146;SDS011;9199;48.832;9.182;2024-03-29T06:45:55;4.13;;;1.80;;
18146;SDS011;9199;48.832;9.182;2024-03-29T06:48:23;4.50;;;1.27;;
18146;SDS011;9199;48.832;9.182;2024-03-29T06:50:50;3.35;;;1.33;;
18146;SDS011;9199;48.832;9.182;2024-03-29T06:53:17;2.90;;;1.15;;
18146;SDS011;9199;48.832;9.182;2024-03-29T06:55:44;4.40;;;1.00;;
18146;SDS011;9199;48.832;9.182;2024-03-29T06:58:14;4.27;;;1.10;;
18146;SDS011;9199;48.832;9.182;2024-03-29T07:00:41;4.68;;;1.20;;
18146;SDS011;9199;48.832;9.182;2024-03-29T07:03:09;4.75;;;1.20;;
18146;SDS011;9199;48.832;9.182;2024-03-29T07:05:36;2.53;;;0.80;;
18146;SDS011;9199;48.832;9.182;2024-03-29T07:08:03;2.65;;;0.63;;
18146;SDS011;9199;48.832;9.182;2024-03-29T07:10:30;2.90;;;0.70;;
18146;SDS011;9199;48.832;9.182;2024-03-29T07:12:57;1.95;;;0.50;;
18146;SDS011;9199;48.832;9.182;2024-03-29T07:15:25;1.60;;;0.50;;
18146;SDS011;9199;48.832;9.182;2024-03-29T07:17:52;2.10;;;0.40;;
18146;SDS011;9199;48.832;9.182;2024-03-29T07:20:18;2.60;;;0.60;;
18146;SDS011;9199;48.832;9.182;2024-03-29T07:22:45;1.60;;;0.50;;
18146;SDS011;9199;48.832;9.182;2024-03-29T07:25:12;1.80;;;0.65;;
18146;SDS011;9199;48.832;9.182;2024-03-29T07:27:39;1.83;;;0.60;;
18146;SDS011;9199;48.832;9.182;2024-03-29T07:30:06;2.70;;;0.60;;
18146;SDS011;9199;48.832;9.182;2024-03-29T07:32:36;1.92;;;0.52;;
18146;SDS011;9199;48.832;9.182;2024-03-29T07:35:03;2.37;;;0.60;;
18146;SDS011;9199;48.832;9.182;2024-03-29T07:37:30;2.03;;;0.70;;
18146;SDS011;9199;48.832;9.182;2024-03-29T07:39:57;2.40;;;0.80;;
18146;SDS011;9199;48.832;9.182;2024-03-29T07:42:24;2.95;;;0.63;;
18146;SDS011;9199;48.832;9.182;2024-03-29T07:44:51;2.70;;;0.70;;
18146;SDS011;9199;48.832;9.182;2024-03-29T07:47:18;2.30;;;0.73;;
18146;SDS011;9199;48.832;9.182;2024-03-29T07:49:48;2.22;;;0.73;;
18146;SDS011;9199;48.832;9.182;2024-03-29T07:52:17;4.72;;;0.90;;
18146;SDS011;9199;48.832;9.182;2024-03-29T07:54:44;3.10;;;0.88;;
18146;SDS011;9199;48.832;9.182;2024-03-29T07:57:11;2.22;;;0.70;;
18146;SDS011;9199;48.832;9.182;2024-03-29T07:59:39;5.17;;;1.17;;
18146;SDS011;9199;48.832;9.182;2024-03-29T08:02:06;4.22;;;0.90;;
18146;SDS011;9199;48.832;9.182;2024-03-29T08:04:33;3.25;;;0.80;;
18146;SDS011;9199;48.832;9.182;2024-03-29T08:07:02;1.90;;;0.70;;
18146;SDS011;9199;48.832;9.182;2024-03-29T08:09:30;3.20;;;0.75;;
18146;SDS011;9199;48.832;9.182;2024-03-29T08:11:57;2.87;;;0.60;;
18146;SDS011;9199;48.832;9.182;2024-03-29T08:14:24;3.72;;;0.80;;
18146;SDS011;9199;48.832;9.182;2024-03-29T08:16:52;3.53;;;0.90;;
18146;SDS011;9199;48.832;9.182;2024-03-29T08:19:20;2.67;;;0.90;;
18146;SDS011;9199;48.832;9.182;2024-03-29T08:21:47;3.33;;;0.93;;
18146;SDS011;9199;48.832;9.182;2024-03-29T08:24:15;1.97;;;0.80;;
18146;SDS011;9199;48.832;9.182;2024-03-29T08:26:42;2.92;;;1.02;;
18146;SDS011;9199;48.832;9.182;2024-03-29T08:29:08;2.95;;;0.82;;
18146;SDS011;9199;48.832;9.182;2024-03-29T08:31:35;2.97;;;1.20;;
18146;SDS011;9199;48.832;9.182;2024-03-29T08:34:02;3.20;;;1.17;;
18146;SDS011;9199;48.832;9.182;2024-03-29T08:36:29;2.57;;;0.70;;
18146;SDS011;9199;48.832;9.182;2024-03-29T08:38:56;4.22;;;1.02;;
18146;SDS011;9199;48.832;9.182;2024-03-29T08:41:25;3.63;;;0.90;;
18146;SDS011;9199;48.832;9.182;2024-03-29T08:43:52;2.38;;;0.73;;
18146;SDS011;9199;48.832;9.182;2024-03-29T08:46:18;3.30;;;0.70;;
18146;SDS011;9199;48.832;9.182;2024-03-29T08:48:45;2.50;;;0.80;;
18146;SDS011;9199;48.832;9.182;2024-03-29T08:51:12;3.30;;;0.93;;
18146;SDS011;9199;48.832;9.182;2024-03-29T08:53:39;2.70;;;0.70;;
18146;SDS011;9199;48.832;9.182;2024-03-29T08:56:15;3.35;;;0.90;;
18146;SDS011;9199;48.832;9.182;2024-03-29T08:58:43;2.72;;;0.70;;
18146;SDS011;9199;48.832;9.182;2024-03-29T09:01:12;2.50;;;0.80;;
18146;SDS011;9199;48.832;9.182;2024-03-29T09:03:40;2.80;;;0.82;;
18146;SDS011;9199;48.832;9.182;2024-03-29T09:06:07;2.72;;;1.00;;
18146;SDS011;9199;48.832;9.182;2024-03-29T09:08:34;4.22;;;1.10;;
18146;SDS011;9199;48.832;9.182;2024-03-29T09:11:02;3.05;;;1.30;;
18146;SDS011;9199;48.832;9.182;2024-03-29T09:13:30;5.80;;;1.80;;
18146;SDS011;9199;48.832;9.182;2024-03-29T09:15:58;3.95;;;1.90;;
18146;SDS011;9199;48.832;9.182;2024-03-29T09:18:25;5.75;;;2.20;;
18146;SDS011;9199;48.832;9.182;2024-03-29T09:20:56;5.18;;;2.42;;
18146;SDS011;9199;48.832;9.182;2024-03-29T09:23:23;5.82;;;1.92;;
18146;SDS011;9199;48.832;9.182;2024-03-29T09:25:52;4.67;;;1.40;;
18146;SDS011;9199;48.832;9.182;2024-03-29T09:28:19;3.85;;;1.40;;
18146;SDS011;9199;48.832;9.182;2024-03-29T09:30:46;4.15;;;1.60;;
18146;SDS011;9199;48.832;9.182;2024-03-29T09:33:14;3.47;;;1.42;;
18146;SDS011;9199;48.832;9.182;2024-03-29T09:35:41;3.60;;;1.33;;
18146;SDS011;9199;48.832;9.182;2024-03-29T09:38:08;3.40;;;1.03;;
18146;SDS011;9199;48.832;9.182;2024-03-29T09:40:35;3.72;;;1.50;;
18146;SDS011;9199;48.832;9.182;2024-03-29T09:43:03;3.35;;;1.52;;
18146;SDS011;9199;48.832;9.182;2024-03-29T09:45:30;4.30;;;1.50;;
18146;SDS011;9199;48.832;9.182;2024-03-29T09:47:59;3.03;;;1.23;;
18146;SDS011;9199;48.832;9.182;2024-03-29T09:50:30;3.50;;;1.20;;
18146;SDS011;9199;48.832;9.182;2024-03-29T09:52:57;4.35;;;1.27;;
18146;SDS011;9199;48.832;9.182;2024-03-29T09:55:24;3.13;;;1.40;;
18146;SDS011;9199;48.832;9.182;2024-03-29T09:57:53;5.97;;;1.40;;
18146;SDS011;9199;48.832;9.182;2024-03-29T10:00:19;3.90;;;1.50;;
18146;SDS011;9199;48.832;9.182;2024-03-29T10:02:46;5.67;;;1.50;;
18146;SDS011;9199;48.832;9.182;2024-03-29T10:05:16;5.22;;;1.70;;
18146;SDS011;9199;48.832;9.182;2024-03-29T10:07:44;4.38;;;1.58;;
18146;SDS011;9199;48.832;9.182;2024-03-29T10:10:12;4.78;;;1.80;;
18146;SDS011;9199;48.832;9.182;2024-03-29T10:12:39;4.85;;;1.50;;
18146;SDS011;9199;48.832;9.182;2024-03-29T10:15:06;5.80;;;1.90;;
18146;SDS011;9199;48.832;9.182;2024-03-29T10:17:39;5.05;;;1.63;;
18146;SDS011;9199;48.832;9.182;2024-03-29T10:20:06;4.60;;;1.77;;
18146;SDS011;9199;48.832;9.182;2024-03-29T10:22:35;4.03;;;1.85;;
18146;SDS011;9199;48.832;9.182;2024-03-29T10:25:04;4.50;;;1.90;;
18146;SDS011;9199;48.832;9.182;2024-03-29T10:27:31;3.70;;;1.70;;
18146;SDS011;9199;48.832;9.182;2024-03-29T10:29:57;6.07;;;1.77;;
18146;SDS011;9199;48.832;9.182;2024-03-29T10:32:25;5.03;;;1.83;;
18146;SDS011;9199;48.832;9.182;2024-03-29T10:34:52;4.22;;;1.60;;
18146;SDS011;9199;48.832;9.182;2024-03-29T10:37:18;4.55;;;1.90;;
18146;SDS011;9199;48.832;9.182;2024-03-29T10:39:51;3.70;;;1.70;;
18146;SDS011;9199;48.832;9.182;2024-03-29T10:42:20;4.40;;;1.70;;
18146;SDS011;9199;48.832;9.182;2024-03-29T10:44:48;4.28;;;1.58;;
18146;SDS011;9199;48.832;9.182;2024-03-29T10:47:15;4.28;;;1.50;;
18146;SDS011;9199;48.832;9.182;2024-03-29T10:49:46;4.88;;;1.80;;
18146;SDS011;9199;48.832;9.182;2024-03-29T10:52:16;4.03;;;1.70;;
18146;SDS011;9199;48.832;9.182;2024-03-29T10:54:43;4.55;;;2.03;;
18146;SDS011;9199;48.832;9.182;2024-03-29T10:57:12;4.97;;;2.10;;
18146;SDS011;9199;48.832;9.182;2024-03-29T10:59:49;6.13;;;2.67;;
18146;SDS011;9199;48.832;9.182;2024-03-29T11:02:27;4.88;;;1.52;;
18146;SDS011;9199;48.832;9.182;2024-03-29T11:05:02;4.70;;;1.73;;
18146;SDS011;9199;48.832;9.182;2024-03-29T11:07:32;3.20;;;1.50;;
18146;SDS011;9199;48.832;9.182;2024-03-29T11:10:00;4.95;;;1.73;;
18146;SDS011;9199;48.832;9.182;2024-03-29T11:12:29;4.57;;;1.85;;
18146;SDS011;9199;48.832;9.182;2024-03-29T11:15:06;4.88;;;1.85;;
18146;SDS011;9199;48.832;9.182;2024-03-29T11:17:42;5.37;;;2.00;;
18146;SDS011;9199;48.832;9.182;2024-03-29T11:20:09;5.57;;;2.17;;
18146;SDS011;9199;48.832;9.182;2024-03-29T11:22:37;5.57;;;2.00;;
18146;SDS011;9199;48.832;9.182;2024-03-29T11:25:04;6.88;;;2.20;;
18146;SDS011;9199;48.832;9.182;2024-03-29T11:27:30;5.07;;;2.28;;
18146;SDS011;9199;48.832;9.182;2024-03-29T11:29:56;6.77;;;2.17;;
18146;SDS011;9199;48.832;9.182;2024-03-29T11:32:34;5.78;;;2.15;;
18146;SDS011;9199;48.832;9.182;2024-03-29T11:35:03;7.40;;;2.17;;
18146;SDS011;9199;48.832;9.182;2024-03-29T11:37:31;4.30;;;1.80;;
18146;SDS011;9199;48.832;9.182;2024-03-29T11:39:58;3.95;;;1.90;;
18146;SDS011;9199;48.832;9.182;2024-03-29T11:42:35;3.95;;;1.63;;
18146;SDS011;9199;48.832;9.182;2024-03-29T11:45:03;4.85;;;1.58;;
18146;SDS011;9199;48.832;9.182;2024-03-29T11:47:32;5.32;;;1.40;;
18146;SDS011;9199;48.832;9.182;2024-03-29T11:50:00;3.90;;;1.40;;
18146;SDS011;9199;48.832;9.182;2024-03-29T11:52:27;3.97;;;1.50;;
18146;SDS011;9199;48.832;9.182;2024-03-29T11:54:54;5.30;;;1.48;;
18146;SDS011;9199;48.832;9.182;2024-03-29T11:57:21;4.05;;;1.50;;
18146;SDS011;9199;48.832;9.182;2024-03-29T11:59:47;4.22;;;1.60;;
18146;SDS011;9199;48.832;9.182;2024-03-29T12:02:14;5.20;;;1.63;;
18146;SDS011;9199;48.832;9.182;2024-03-29T12:04:42;3.88;;;1.38;;
18146;SDS011;9199;48.832;9.182;2024-03-29T12:07:09;4.32;;;1.50;;
18146;SDS011;9199;48.832;9.182;2024-03-29T12:09:37;4.35;;;1.30;;
18146;SDS011;9199;48.832;9.182;2024-03-29T12:12:04;3.60;;;1.40;;
18146;SDS011;9199;48.832;9.182;2024-03-29T12:14:35;4.80;;;1.30;;
18146;SDS011;9199;48.832;9.182;2024-03-29T12:17:08;4.30;;;1.30;;
18146;SDS011;9199;48.832;9.182;2024-03-29T12:19:35;3.30;;;1.20;;
18146;SDS011;9199;48.832;9.182;2024-03-29T12:22:05;4.53;;;1.17;;
18146;SDS011;9199;48.832;9.182;2024-03-29T12:24:32;4.38;;;1.08;;
18146;SDS011;9199;48.832;9.182;2024-03-29T12:26:59;3.83;;;1.50;;
18146;SDS011;9199;48.832;9.182;2024-03-29T12:29:25;2.70;;;0.90;;
18146;SDS011;9199;48.832;9.182;2024-03-29T12:31:56;3.88;;;1.00;;
18146;SDS011;9199;48.832;9.182;2024-03-29T12:34:24;3.70;;;1.10;;
18146;SDS011;9199;48.832;9.182;2024-03-29T12:36:51;3.70;;;1.05;;
18146;SDS011;9199;48.832;9.182;2024-03-29T12:39:19;3.37;;;0.90;;
18146;SDS011;9199;48.832;9.182;2024-03-29T12:41:47;3.60;;;0.90;;
18146;SDS011;9199;48.832;9.182;2024-03-29T12:44:14;3.25;;;0.98;;
18146;SDS011;9199;48.832;9.182;2024-03-29T12:46:40;2.75;;;0.80;;
18146;SDS011;9199;48.832;9.182;2024-03-29T12:49:09;2.70;;;1.00;;
18146;SDS011;9199;48.832;9.182;2024-03-29T12:51:37;1.90;;;0.70;;
18146;SDS011;9199;48.832;9.182;2024-03-29T12:54:06;2.97;;;1.10;;
18146;SDS011;9199;48.832;9.182;2024-03-29T12:56:35;2.13;;;0.90;;
18146;SDS011;9199;48.832;9.182;2024-03-29T12:59:03;3.55;;;1.00;;
18146;SDS011;9199;48.832;9.182;2024-03-29T13:01:30;3.03;;;1.00;;
18146;SDS011;9199;48.832;9.182;2024-03-29T13:03:57;2.27;;;0.80;;
18146;SDS011;9199;48.832;9.182;2024-03-29T13:06:24;2.45;;;0.82;;
18146;SDS011;9199;48.832;9.182;2024-03-29T13:08:51;3.55;;;0.90;;
18146;SDS011;9199;48.832;9.182;2024-03-29T13:11:18;2.63;;;0.90;;
18146;SDS011;9199;48.832;9.182;2024-03-29T13:13:46;3.22;;;0.80;;
18146;SDS011;9199;48.832;9.182;2024-03-29T13:16:14;2.83;;;0.80;;
18146;SDS011;9199;48.832;9.182;2024-03-29T13:18:41;2.47;;;0.70;;
18146;SDS011;9199;48.832;9.182;2024-03-29T13:21:07;2.17;;;0.80;;
18146;SDS011;9199;48.832;9.182;2024-03-29T13:23:34;1.65;;;0.55;;
18146;SDS011;9199;48.832;9.182;2024-03-29T13:26:01;1.63;;;0.60;;
18146;SDS011;9199;48.832;9.182;2024-03-29T13:28:28;2.03;;;0.60;;
18146;SDS011;9199;48.832;9.182;2024-03-29T13:30:56;2.17;;;0.65;;
18146;SDS011;9199;48.832;9.182;2024-03-29T13:33:23;2.03;;;0.77;;
18146;SDS011;9199;48.832;9.182;2024-03-29T13:35:52;3.05;;;0.90;;
18146;SDS011;9199;48.832;9.182;2024-03-29T13:38:20;3.50;;;1.45;;
18146;SDS011;9199;48.832;9.182;2024-03-29T13:40:48;2.90;;;1.00;;
18146;SDS011;9199;48.832;9.182;2024-03-29T13:43:15;3.00;;;1.10;;
18146;SDS011;9199;48.832;9.182;2024-03-29T13:45:42;3.28;;;1.30;;
18146;SDS011;9199;48.832;9.182;2024-03-29T13:48:10;2.25;;;0.90;;
18146;SDS011;9199;48.832;9.182;2024-03-29T13:50:37;3.42;;;1.10;;
18146;SDS011;9199;48.832;9.182;2024-03-29T13:53:04;2.70;;;1.20;;
18146;SDS011;9199;48.832;9.182;2024-03-29T13:55:30;3.78;;;1.20;;
18146;SDS011;9199;48.832;9.182;2024-03-29T13:57:57;2.88;;;0.90;;
18146;SDS011;9199;48.832;9.182;2024-03-29T14:00:24;2.78;;;0.95;;
18146;SDS011;9199;48.832;9.182;2024-03-29T14:02:50;2.80;;;0.98;;
18146;SDS011;9199;48.832;9.182;2024-03-29T14:05:19;2.07;;;0.80;;
18146;SDS011;9199;48.832;9.182;2024-03-29T14:07:46;2.38;;;0.82;;
18146;SDS011;9199;48.832;9.182;2024-03-29T14:10:15;2.65;;;0.98;;
18146;SDS011;9199;48.832;9.182;2024-03-29T14:12:43;2.50;;;0.80;;
18146;SDS011;9199;48.832;9.182;2024-03-29T14:15:10;2.30;;;0.80;;
18146;SDS011;9199;48.832;9.182;2024-03-29T14:17:37;2.13;;;0.80;;
18146;SDS011;9199;48.832;9.182;2024-03-29T14:20:04;1.80;;;0.65;;
18146;SDS011;9199;48.832;9.182;2024-03-29T14:22:33;2.08;;;0.70;;
18146;SDS011;9199;48.832;9.182;2024-03-29T14:25:01;1.83;;;0.60;;
18146;SDS011;9199;48.832;9.182;2024-03-29T14:27:28;3.15;;;0.82;;
18146;SDS011;9199;48.832;9.182;2024-03-29T14:29:55;2.23;;;0.83;;
18146;SDS011;9199;48.832;9.182;2024-03-29T14:32:22;3.28;;;0.90;;
18146;SDS011;9199;48.832;9.182;2024-03-29T14:34:49;2.85;;;0.80;;
18146;SDS011;9199;48.832;9.182;2024-03-29T14:37:15;1.67;;;0.70;;
18146;SDS011;9199;48.832;9.182;2024-03-29T14:39:43;2.70;;;0.80;;
18146;SDS011;9199;48.832;9.182;2024-03-29T14:42:10;3.33;;;0.87;;
18146;SDS011;9199;48.832;9.182;2024-03-29T14:44:47;1.77;;;0.80;;
18146;SDS011;9199;48.832;9.182;2024-03-29T14:47:13;3.17;;;0.95;;
18146;SDS011;9199;48.832;9.182;2024-03-29T14:49:42;3.45;;;0.80;;
18146;SDS011;9199;48.832;9.182;2024-03-29T14:52:09;2.10;;;0.80;;
18146;SDS011;9199;48.832;9.182;2024-03-29T14:54:35;2.97;;;0.97;;
18146;SDS011;9199;48.832;9.182;2024-03-29T14:57:03;3.15;;;1.08;;
18146;SDS011;9199;48.832;9.182;2024-03-29T14:59:30;5.18;;;1.27;;
18146;SDS011;9199;48.832;9.182;2024-03-29T15:01:59;2.58;;;1.00;;